createdAt,value
2018-07-04T00:02:25.563Z,101387.95
2018-07-04T00:05:11.877Z,101381.95
2018-07-04T00:07:58.183Z,101388.03
2018-07-04T00:10:44.838Z,101385.00
2018-07-04T00:13:31.246Z,101385.44
2018-07-04T00:16:17.675Z,101388.22
2018-07-04T00:19:04.152Z,101388.28
2018-07-04T00:21:50.406Z,101383.48
2018-07-04T00:24:36.786Z,101386.14
2018-07-04T00:27:23.281Z,101385.89
2018-07-04T00:30:09.536Z,101381.33
2018-07-04T00:32:55.644Z,101386.67
2018-07-04T00:35:41.974Z,101382.25
2018-07-04T00:38:28.238Z,101379.81
2018-07-04T00:41:14.663Z,101383.28
2018-07-04T00:44:00.902Z,101379.83
2018-07-04T00:46:47.518Z,101381.08
2018-07-04T00:49:33.913Z,101378.72
2018-07-04T00:52:19.971Z,101372.77
2018-07-04T00:55:06.437Z,101383.86
2018-07-04T00:57:52.610Z,101380.48
2018-07-04T01:00:39.342Z,101388.28
2018-07-04T01:03:25.590Z,101383.23
2018-07-04T01:06:11.684Z,101381.87
2018-07-04T01:08:57.867Z,101387.42
2018-07-04T01:11:44.011Z,101392.69
2018-07-04T01:14:30.259Z,101392.44
2018-07-04T01:17:17.068Z,101390.64
2018-07-04T01:20:03.283Z,101395.02
2018-07-04T01:22:49.564Z,101391.02
2018-07-04T01:25:35.925Z,101388.23
2018-07-04T01:28:26.597Z,101393.89
2018-07-04T01:31:12.665Z,101386.02
2018-07-04T01:33:59.225Z,101382.61
2018-07-04T01:36:45.420Z,101383.35
2018-07-04T01:39:31.475Z,101386.58
2018-07-04T01:42:17.667Z,101377.34
2018-07-04T01:45:03.922Z,101377.15
2018-07-04T01:47:50.128Z,101378.66
2018-07-04T01:50:36.500Z,101378.38
2018-07-04T01:53:23.069Z,101369.69
2018-07-04T01:56:09.366Z,101371.20
2018-07-04T01:58:55.711Z,101370.40
2018-07-04T02:01:42.072Z,101374.34
2018-07-04T02:04:28.251Z,101364.61
2018-07-04T02:07:14.658Z,101373.80
2018-07-04T02:10:00.885Z,101370.79
2018-07-04T02:12:46.986Z,101371.12
2018-07-04T02:15:33.219Z,101372.92
2018-07-04T02:18:19.471Z,101372.92
2018-07-04T02:21:05.691Z,101376.19
2018-07-04T02:23:52.315Z,101377.55
2018-07-04T02:26:32.599Z,101382.05
2018-07-04T02:29:19.072Z,101384.45
2018-07-04T02:32:05.428Z,101382.39
2018-07-04T02:34:55.840Z,101378.23
2018-07-04T02:37:42.960Z,101375.28
2018-07-04T02:40:29.376Z,101378.73
2018-07-04T02:43:15.522Z,101376.12
2018-07-04T02:46:01.826Z,101375.87
2018-07-04T02:48:48.056Z,101377.38
2018-07-04T02:51:34.324Z,101376.42
2018-07-04T02:54:20.681Z,101371.58
2018-07-04T02:57:07.161Z,101374.26
2018-07-04T02:59:53.690Z,101382.50
2018-07-04T03:02:40.103Z,101378.07
2018-07-04T03:05:20.323Z,101377.08
2018-07-04T03:08:06.455Z,101375.28
2018-07-04T03:10:53.039Z,101369.06
2018-07-04T03:13:39.518Z,101376.64
2018-07-04T03:16:25.727Z,101376.48
2018-07-04T03:19:12.008Z,101379.82
2018-07-04T03:21:58.521Z,101379.06
2018-07-04T03:24:44.891Z,101383.16
2018-07-04T03:27:31.218Z,101385.67
2018-07-04T03:30:17.700Z,101379.66
2018-07-04T03:33:04.239Z,101378.48
2018-07-04T03:35:50.593Z,101380.42
2018-07-04T03:38:36.755Z,101377.58
2018-07-04T03:41:23.032Z,101381.47
2018-07-04T03:44:09.365Z,101377.80
2018-07-04T03:46:56.324Z,101376.23
2018-07-04T03:49:42.636Z,101366.73
2018-07-04T03:52:28.887Z,101365.27
2018-07-04T03:55:15.093Z,101372.21
2018-07-04T03:57:55.181Z,101374.57
2018-07-04T04:00:41.429Z,101368.06
2018-07-04T04:03:27.861Z,101373.53
2018-07-04T04:06:14.280Z,101375.14
2018-07-04T04:09:00.664Z,101372.22
2018-07-04T04:11:46.919Z,101375.05
2018-07-04T04:14:33.187Z,101364.50
2018-07-04T04:17:19.828Z,101362.99
2018-07-04T04:20:06.534Z,101365.80
2018-07-04T04:22:52.787Z,101363.66
2018-07-04T04:25:39.211Z,101372.46
2018-07-04T04:28:25.499Z,101370.69
2018-07-04T04:31:11.925Z,101368.61
2018-07-04T04:33:58.286Z,101371.16
2018-07-04T04:36:44.919Z,101376.24
2018-07-04T04:39:31.411Z,101362.80
2018-07-04T04:42:17.561Z,101369.01
2018-07-04T04:45:03.779Z,101372.91
2018-07-04T04:47:44.089Z,101370.89
2018-07-04T04:50:30.208Z,101368.33
2018-07-04T04:53:16.562Z,101371.97
2018-07-04T04:56:02.802Z,101368.44
2018-07-04T04:58:49.233Z,101373.98
2018-07-04T05:01:35.503Z,101374.72
2018-07-04T05:04:21.790Z,101370.84
2018-07-04T05:07:08.122Z,101373.47
2018-07-04T05:09:54.705Z,101375.69
2018-07-04T05:12:40.908Z,101372.94
2018-07-04T05:15:27.270Z,101371.77
2018-07-04T05:18:13.557Z,101373.74
2018-07-04T05:20:59.776Z,101368.96
2018-07-04T05:23:45.938Z,101371.00
2018-07-04T05:26:37.147Z,101379.01
2018-07-04T05:29:23.373Z,101382.98
2018-07-04T05:32:09.915Z,101383.92
2018-07-04T05:34:56.177Z,101379.80
2018-07-04T05:37:42.308Z,101378.34
2018-07-04T05:40:28.574Z,101381.55
2018-07-04T05:43:15.043Z,101388.07
2018-07-04T05:46:01.291Z,101379.79
2018-07-04T05:48:47.569Z,101383.66
2018-07-04T05:51:33.725Z,101377.33
2018-07-04T05:54:20.234Z,101374.24
2018-07-04T05:57:06.534Z,101372.44
2018-07-04T05:59:53.207Z,101370.88
2018-07-04T06:02:39.400Z,101365.60
2018-07-04T06:05:25.609Z,101369.84
2018-07-04T06:08:11.860Z,101370.50
2018-07-04T06:10:58.069Z,101371.03
2018-07-04T06:13:44.426Z,101383.08
2018-07-04T06:16:30.796Z,101379.53
2018-07-04T06:19:16.903Z,101378.38
2018-07-04T06:22:03.090Z,101374.36
2018-07-04T06:24:49.372Z,101373.72
2018-07-04T06:27:35.482Z,101373.62
2018-07-04T06:30:22.086Z,101372.54
2018-07-04T06:33:08.438Z,101369.94
2018-07-04T06:35:48.702Z,101366.13
2018-07-04T06:38:16.479Z,101366.34
2018-07-04T06:40:44.252Z,101365.84
2018-07-04T06:43:12.145Z,101366.55
2018-07-04T06:45:39.991Z,101373.72
2018-07-04T06:48:08.086Z,101365.45
2018-07-04T06:50:35.931Z,101370.98
2018-07-04T06:53:04.102Z,101368.57
2018-07-04T06:55:31.965Z,101362.72
2018-07-04T06:57:59.761Z,101365.39
2018-07-04T07:00:27.562Z,101363.88
2018-07-04T07:03:13.718Z,101359.65
2018-07-04T07:05:59.945Z,101360.88
2018-07-04T07:08:46.360Z,101344.83
2018-07-04T07:11:32.980Z,101355.21
2018-07-04T07:14:19.271Z,101358.54
2018-07-04T07:17:05.540Z,101352.13
2018-07-04T07:19:51.687Z,101355.07
2018-07-04T07:22:38.082Z,101347.02
2018-07-04T07:25:24.419Z,101345.40
2018-07-04T07:28:11.010Z,101347.02
2018-07-04T07:30:57.250Z,101350.48
2018-07-04T07:33:43.498Z,101349.27
2018-07-04T07:36:23.724Z,101344.81
2018-07-04T07:39:09.943Z,101336.98
2018-07-04T07:41:56.236Z,101339.80
2018-07-04T07:44:42.745Z,101335.95
2018-07-04T07:47:28.904Z,101334.81
2018-07-04T07:50:15.223Z,101335.89
2018-07-04T07:53:01.450Z,101337.84
2018-07-04T07:55:47.849Z,101329.59
2018-07-04T07:58:34.023Z,101325.47
2018-07-04T08:01:20.859Z,101322.30
2018-07-04T08:04:07.143Z,101319.47
2018-07-04T08:06:53.413Z,101318.72
2018-07-04T08:09:39.626Z,101321.06
2018-07-04T08:12:25.902Z,101316.80
2018-07-04T08:15:12.231Z,101312.14
2018-07-04T08:17:59.078Z,101311.60
2018-07-04T08:20:45.522Z,101303.25
2018-07-04T08:23:31.934Z,101307.04
2018-07-04T08:26:18.175Z,101305.53
2018-07-04T08:29:04.733Z,101303.46
2018-07-04T08:31:51.138Z,101299.70
2018-07-04T08:34:37.731Z,101296.12
2018-07-04T08:37:23.938Z,101299.33
2018-07-04T08:40:10.164Z,101299.01
2018-07-04T08:42:56.331Z,101295.91
2018-07-04T08:45:42.816Z,101298.27
2018-07-04T08:48:29.290Z,101291.80
2018-07-04T08:51:09.892Z,101293.47
2018-07-04T08:53:56.324Z,101302.80
2018-07-04T08:56:42.627Z,101298.52
2018-07-04T08:59:28.838Z,101294.07
2018-07-04T09:02:15.004Z,101287.05
2018-07-04T09:05:01.210Z,101289.91
2018-07-04T09:07:47.712Z,101292.31
2018-07-04T09:10:34.013Z,101291.58
2018-07-04T09:13:20.055Z,101287.60
2018-07-04T09:16:06.202Z,101290.20
2018-07-04T09:18:52.616Z,101291.45
2018-07-04T09:21:38.886Z,101282.92
2018-07-04T09:24:25.515Z,101280.18
2018-07-04T09:27:11.713Z,101278.23
2018-07-04T09:29:57.883Z,101277.05
2018-07-04T09:32:44.235Z,101279.08
2018-07-04T09:35:30.482Z,101273.58
2018-07-04T09:38:16.709Z,101267.17
2018-07-04T09:41:03.228Z,101269.38
2018-07-04T09:43:49.725Z,101263.52
2018-07-04T09:46:36.139Z,101260.84
2018-07-04T09:49:22.648Z,101262.95
2018-07-04T09:52:08.859Z,101261.36
2018-07-04T09:54:55.335Z,101255.94
2018-07-04T09:57:42.386Z,101257.87
2018-07-04T10:00:29.834Z,101254.78
2018-07-04T10:03:16.240Z,101254.77
2018-07-04T10:06:02.595Z,101256.19
2018-07-04T10:08:42.751Z,101252.86
2018-07-04T10:11:28.908Z,101245.11
2018-07-04T10:14:15.680Z,101251.37
2018-07-04T10:17:01.818Z,101243.85
2018-07-04T10:19:47.890Z,101242.21
2018-07-04T10:22:34.157Z,101243.04
2018-07-04T10:25:20.701Z,101236.34
2018-07-04T10:28:06.788Z,101229.61
2018-07-04T10:30:53.370Z,101227.66
2018-07-04T10:33:39.530Z,101230.17
2018-07-04T10:36:25.756Z,101228.20
2018-07-04T10:39:11.882Z,101226.52
2018-07-04T10:41:58.021Z,101234.36
2018-07-04T10:44:44.424Z,101229.89
2018-07-04T10:47:30.830Z,101233.52
2018-07-04T10:50:17.074Z,101223.08
2018-07-04T10:53:03.597Z,101223.03
2018-07-04T10:55:49.769Z,101218.97
2018-07-04T10:58:36.088Z,101221.91
2018-07-04T11:01:22.416Z,101218.48
2018-07-04T11:04:09.427Z,101212.53
2018-07-04T11:06:55.534Z,101205.83
2018-07-04T11:09:41.724Z,101199.99
2018-07-04T11:12:27.900Z,101200.26
2018-07-04T11:15:14.131Z,101195.00
2018-07-04T11:18:00.455Z,101205.26
2018-07-04T11:20:47.432Z,101198.64
2018-07-04T11:23:33.535Z,101185.50
2018-07-04T11:26:19.820Z,101187.70
2018-07-04T11:29:05.999Z,101178.23
2018-07-04T11:31:53.160Z,101178.27
2018-07-04T11:34:39.558Z,101173.45
2018-07-04T11:37:26.180Z,101170.45
2018-07-04T11:40:12.368Z,101184.20
2018-07-04T11:42:58.622Z,101177.67
2018-07-04T11:45:44.811Z,101171.31
2018-07-04T11:48:12.615Z,101167.52
2018-07-04T11:50:40.376Z,101167.69
2018-07-04T11:53:08.177Z,101162.77
2018-07-04T11:55:36.697Z,101167.78
2018-07-04T11:58:04.493Z,101165.08
2018-07-04T12:00:32.327Z,101161.06
2018-07-04T12:03:00.108Z,101158.15
2018-07-04T12:05:46.384Z,101164.08
2018-07-04T12:08:14.189Z,101160.00
2018-07-04T12:10:42.109Z,101159.55
2018-07-04T12:13:09.886Z,101158.30
2018-07-04T12:15:38.066Z,101146.63
2018-07-04T12:18:05.824Z,101150.16
2018-07-04T12:20:33.576Z,101146.56
2018-07-04T12:23:01.372Z,101145.95
2018-07-04T12:25:29.140Z,101143.85
2018-07-04T12:27:56.935Z,101136.48
2018-07-04T12:30:24.835Z,101142.48
2018-07-04T12:32:52.636Z,101141.44
2018-07-04T12:35:20.520Z,101138.27
2018-07-04T12:37:48.513Z,101139.53
2018-07-04T12:40:16.310Z,101133.21
2018-07-04T12:42:44.110Z,101133.47
2018-07-04T12:45:11.908Z,101134.08
2018-07-04T12:47:39.697Z,101130.35
2018-07-04T12:50:26.223Z,101130.20
2018-07-04T12:52:54.131Z,101133.88
2018-07-04T12:55:42.154Z,101129.49
2018-07-04T12:58:28.935Z,101136.05
2018-07-04T13:01:15.160Z,101126.91
2018-07-04T13:04:01.526Z,101120.89
2018-07-04T13:06:47.783Z,101121.89
2018-07-04T13:09:34.197Z,101109.58
2018-07-04T13:12:21.039Z,101109.58
2018-07-04T13:15:07.444Z,101111.54
2018-07-04T13:17:53.687Z,101103.78
2018-07-04T13:20:39.818Z,101096.02
2018-07-04T13:23:26.204Z,101089.22
2018-07-04T13:26:12.330Z,101098.68
2018-07-04T13:28:58.709Z,101099.91
2018-07-04T13:31:44.833Z,101084.56
2018-07-04T13:34:31.049Z,101086.06
2018-07-04T13:37:17.294Z,101082.94
2018-07-04T13:40:03.673Z,101075.97
2018-07-04T13:42:49.757Z,101068.81
2018-07-04T13:45:36.107Z,101080.48
2018-07-04T13:48:22.222Z,101075.03
2018-07-04T13:51:08.417Z,101071.35
2018-07-04T13:53:54.477Z,101067.87
2018-07-04T13:56:40.735Z,101063.17
2018-07-04T13:59:27.247Z,101053.82
2018-07-04T14:02:15.350Z,101063.77
2018-07-04T14:05:01.782Z,101063.42
2018-07-04T14:07:48.187Z,101062.45
2018-07-04T14:10:34.390Z,101066.14
2018-07-04T14:13:20.811Z,101066.48
2018-07-04T14:16:07.105Z,101071.14
2018-07-04T14:18:53.453Z,101062.63
2018-07-04T14:21:39.915Z,101059.56
2018-07-04T14:24:26.106Z,101058.70
2018-07-04T14:27:12.353Z,101063.44
2018-07-04T14:29:58.646Z,101067.23
2018-07-04T14:32:44.824Z,101068.67
2018-07-04T14:35:31.245Z,101065.91
2018-07-04T14:38:17.265Z,101061.73
2018-07-04T14:41:03.339Z,101060.05
2018-07-04T14:43:49.591Z,101058.83
2018-07-04T14:46:35.803Z,101059.33
2018-07-04T14:49:22.194Z,101060.53
2018-07-04T14:52:09.313Z,101050.25
2018-07-04T14:54:55.480Z,101063.86
2018-07-04T14:57:41.749Z,101054.27
2018-07-04T15:00:28.088Z,101055.32
2018-07-04T15:03:14.168Z,101055.39
2018-07-04T15:06:00.470Z,101051.50
2018-07-04T15:08:47.178Z,101045.80
2018-07-04T15:11:33.624Z,101036.86
2018-07-04T15:14:19.784Z,101032.03
2018-07-04T15:16:59.979Z,101033.13
2018-07-04T15:19:46.351Z,101036.94
2018-07-04T15:22:32.723Z,101030.80
2018-07-04T15:25:18.954Z,101033.62
2018-07-04T15:28:05.180Z,101030.62
2018-07-04T15:30:51.272Z,101019.25
2018-07-04T15:33:37.435Z,101017.65
2018-07-04T15:36:23.552Z,101022.53
2018-07-04T15:39:09.765Z,101017.45
2018-07-04T15:41:56.187Z,101020.95
2018-07-04T15:44:42.314Z,101016.55
2018-07-04T15:47:28.510Z,101018.86
2018-07-04T15:50:14.628Z,101013.72
2018-07-04T15:53:00.841Z,101017.47
2018-07-04T15:55:47.136Z,101018.67
2018-07-04T15:58:33.580Z,101013.60
2018-07-04T16:01:19.846Z,101010.56
2018-07-04T16:04:06.091Z,101013.68
2018-07-04T16:06:52.340Z,101018.98
2018-07-04T16:09:38.906Z,101013.41
2018-07-04T16:12:25.199Z,101014.69
2018-07-04T16:15:12.044Z,101011.89
2018-07-04T16:17:52.460Z,101005.03
2018-07-04T16:20:38.973Z,101001.57
2018-07-04T16:23:25.171Z,101002.55
2018-07-04T16:26:11.531Z,100998.22
2018-07-04T16:28:57.795Z,101000.97
2018-07-04T16:31:44.230Z,100997.57
2018-07-04T16:34:30.407Z,100996.20
2018-07-04T16:37:10.761Z,100989.45
2018-07-04T16:39:51.296Z,100984.54
2018-07-04T16:42:37.469Z,100983.85
2018-07-04T16:45:23.775Z,100980.41
2018-07-04T16:48:10.274Z,100985.59
2018-07-04T16:50:56.609Z,100980.83
2018-07-04T16:53:42.785Z,100981.52
2018-07-04T16:56:29.394Z,100976.42
2018-07-04T16:59:10.308Z,100981.34
2018-07-04T17:01:50.652Z,100976.83
2018-07-04T17:04:37.157Z,100978.55
2018-07-04T17:07:23.550Z,100985.09
2018-07-04T17:10:10.148Z,100983.06
2018-07-04T17:12:56.427Z,100981.91
2018-07-04T17:15:42.676Z,100984.73
2018-07-04T17:18:28.788Z,100982.47
2018-07-04T17:21:15.494Z,100982.39
2018-07-04T17:24:01.883Z,100987.57
2018-07-04T17:26:48.368Z,100980.28
2018-07-04T17:29:34.582Z,100982.95
2018-07-04T17:32:21.047Z,100972.91
2018-07-04T17:35:07.280Z,100980.82
2018-07-04T17:37:53.735Z,100973.27
2018-07-04T17:40:40.045Z,100977.97
2018-07-04T17:43:26.187Z,100969.39
2018-07-04T17:46:12.549Z,100966.22
2018-07-04T17:48:58.874Z,100968.08
2018-07-04T17:51:44.964Z,100969.58
2018-07-04T17:54:32.445Z,100978.41
2018-07-04T17:57:18.674Z,100973.48
2018-07-04T18:00:05.075Z,100977.11
2018-07-04T18:02:51.258Z,100975.20
2018-07-04T18:05:37.491Z,100981.38
2018-07-04T18:08:17.947Z,100979.34
2018-07-04T18:11:04.422Z,100978.35
2018-07-04T18:13:50.798Z,100979.96
2018-07-04T18:16:37.200Z,100983.86
2018-07-04T18:19:23.628Z,100986.35
2018-07-04T18:22:09.933Z,100988.63
2018-07-04T18:24:56.170Z,100998.69
2018-07-04T18:27:42.985Z,100993.31
2018-07-04T18:30:29.323Z,100984.69
2018-07-04T18:33:15.605Z,100985.80
2018-07-04T18:36:01.884Z,100994.48
2018-07-04T18:38:48.240Z,100986.97
2018-07-04T18:41:34.474Z,100988.66
2018-07-04T18:44:20.927Z,100987.57
2018-07-04T18:47:07.109Z,100985.35
2018-07-04T18:49:53.480Z,100995.99
2018-07-04T18:52:33.666Z,100993.49
2018-07-04T18:55:20.251Z,100999.92
2018-07-04T18:58:06.648Z,100997.69
2018-07-04T19:00:53.038Z,100996.56
2018-07-04T19:03:39.590Z,101002.73
2018-07-04T19:06:25.897Z,100993.79
2018-07-04T19:09:12.032Z,100989.33
2018-07-04T19:11:58.359Z,100991.55
2018-07-04T19:14:44.452Z,100980.69
2018-07-04T19:17:30.727Z,100986.53
2018-07-04T19:20:16.886Z,100985.97
2018-07-04T19:23:03.119Z,100987.59
2018-07-04T19:25:49.381Z,100988.72
2018-07-04T19:28:35.589Z,100984.77
2018-07-04T19:31:21.711Z,100987.69
2018-07-04T19:34:08.113Z,100986.34
2018-07-04T19:36:54.425Z,100980.41
2018-07-04T19:39:40.787Z,100982.28
2018-07-04T19:42:27.053Z,100988.31
2018-07-04T19:45:13.391Z,100984.14
2018-07-04T19:47:59.531Z,100984.94
2018-07-04T19:50:46.233Z,100985.13
2018-07-04T19:53:32.381Z,100990.69
2018-07-04T19:56:18.538Z,100982.87
2018-07-04T19:58:58.725Z,100978.64
2018-07-04T20:01:44.996Z,100979.64
2018-07-04T20:04:31.396Z,100981.27
2018-07-04T20:07:17.891Z,100982.40
2018-07-04T20:10:04.263Z,100985.34
2018-07-04T20:12:50.543Z,100990.24
2018-07-04T20:15:36.943Z,100988.06
2018-07-04T20:18:23.445Z,101004.77
2018-07-04T20:21:09.642Z,101002.45
2018-07-04T20:23:55.939Z,101004.94
2018-07-04T20:26:42.292Z,100999.56
2018-07-04T20:29:28.768Z,101002.75
2018-07-04T20:32:14.864Z,101003.62
2018-07-04T20:35:01.122Z,101003.16
2018-07-04T20:37:47.470Z,101009.34
2018-07-04T20:40:33.704Z,101009.95
2018-07-04T20:43:19.868Z,101017.58
2018-07-04T20:46:06.149Z,101015.36
2018-07-04T20:48:52.568Z,101023.53
2018-07-04T20:51:38.944Z,101021.91
2018-07-04T20:54:25.107Z,101021.26
2018-07-04T20:57:11.601Z,101030.23
2018-07-04T20:59:58.164Z,101037.88
2018-07-04T21:02:44.606Z,101043.59
2018-07-04T21:05:30.947Z,101038.89
2018-07-04T21:08:17.450Z,101034.55
2018-07-04T21:11:03.552Z,101033.52
2018-07-04T21:13:49.799Z,101034.76
2018-07-04T21:16:36.199Z,101034.50
2018-07-04T21:19:22.514Z,101036.73
2018-07-04T21:22:08.695Z,101039.93
2018-07-04T21:24:54.786Z,101037.75
2018-07-04T21:27:41.014Z,101032.84
2018-07-04T21:30:27.410Z,101041.78
2018-07-04T21:33:14.800Z,101037.70
2018-07-04T21:36:01.419Z,101046.31
2018-07-04T21:38:49.201Z,101042.88
2018-07-04T21:41:35.350Z,101048.80
2018-07-04T21:44:21.857Z,101047.83
2018-07-04T21:47:08.573Z,101049.59
2018-07-04T21:49:54.851Z,101046.10
2018-07-04T21:52:40.920Z,101047.45
2018-07-04T21:55:27.094Z,101048.31
2018-07-04T21:58:13.449Z,101055.10
2018-07-04T22:00:59.882Z,101050.78
2018-07-04T22:03:46.558Z,101048.06
2018-07-04T22:06:32.922Z,101044.90
2018-07-04T22:09:19.156Z,101046.43
2018-07-04T22:12:05.584Z,101040.99
2018-07-04T22:14:51.820Z,101045.98
2018-07-04T22:17:38.030Z,101040.16
2018-07-04T22:20:24.413Z,101036.67
2018-07-04T22:23:10.552Z,101036.29
2018-07-04T22:25:56.883Z,101032.83
2018-07-04T22:28:43.152Z,101029.32
2018-07-04T22:31:29.446Z,101027.48
2018-07-04T22:34:15.606Z,101032.31
2018-07-04T22:37:02.607Z,101034.23
2018-07-04T22:39:49.658Z,101032.14
2018-07-04T22:42:36.147Z,101042.61
2018-07-04T22:45:22.327Z,101036.92
2018-07-04T22:48:08.562Z,101030.73
2018-07-04T22:50:54.821Z,101030.42
2018-07-04T22:53:41.581Z,101030.13
2018-07-04T22:56:27.710Z,101022.12
2018-07-04T22:59:14.283Z,101022.92
2018-07-04T23:02:00.762Z,101006.88
2018-07-04T23:04:46.925Z,101008.81
2018-07-04T23:07:33.387Z,101020.59
2018-07-04T23:10:25.359Z,101021.49
2018-07-04T23:13:11.873Z,101012.87
2018-07-04T23:16:01.848Z,101003.37
2018-07-04T23:18:48.527Z,100996.11
2018-07-04T23:21:34.896Z,101011.11
2018-07-04T23:24:21.291Z,101014.23
2018-07-04T23:27:07.588Z,101012.95
2018-07-04T23:29:54.096Z,101021.23
2018-07-04T23:32:40.618Z,101018.14
2018-07-04T23:35:26.757Z,101024.71
2018-07-04T23:38:13.285Z,101020.06
2018-07-04T23:40:59.390Z,101026.39
2018-07-04T23:43:46.161Z,101019.80
2018-07-04T23:46:32.520Z,101031.45
2018-07-04T23:49:18.938Z,101036.66
2018-07-04T23:52:05.368Z,101049.72
2018-07-04T23:54:51.893Z,101044.03
2018-07-04T23:57:38.349Z,101050.70
